createdAt,value
2023-04-13T00:05:04.960Z,56.10
2023-04-13T00:10:11.894Z,56.10
2023-04-13T00:15:16.570Z,56.30
2023-04-13T00:20:21.669Z,56.20
2023-04-13T00:25:24.903Z,56.20
2023-04-13T00:30:28.158Z,56.30
2023-04-13T00:35:34.276Z,56.20
2023-04-13T00:40:38.041Z,56.30
2023-04-13T00:45:41.526Z,56.30
2023-04-13T00:50:46.287Z,56.30
2023-04-13T00:55:53.371Z,56.30
2023-04-13T01:00:56.736Z,56.20
2023-04-13T01:06:18.930Z,56.10
2023-04-13T01:11:31.634Z,56.20
2023-04-13T01:16:41.966Z,56.10
2023-04-13T01:21:55.428Z,56.20
2023-04-13T01:27:09.583Z,56.90
2023-04-13T01:32:18.388Z,56.20
2023-04-13T01:37:22.386Z,56.20
2023-04-13T01:42:26.111Z,56.20
2023-04-13T01:47:35.957Z,56.20
2023-04-13T01:52:46.730Z,56.10
2023-04-13T01:57:54.469Z,56.00
2023-04-13T02:03:00.432Z,56.10
2023-04-13T02:08:05.371Z,56.10
2023-04-13T02:13:12.357Z,56.20
2023-04-13T02:18:17.561Z,56.20
2023-04-13T02:23:21.503Z,56.20
2023-04-13T02:28:26.464Z,56.20
2023-04-13T02:33:34.227Z,56.20
2023-04-13T02:38:43.668Z,56.30
2023-04-13T02:44:01.750Z,56.30
2023-04-13T02:49:12.604Z,56.20
2023-04-13T02:54:25.246Z,56.20
2023-04-13T02:59:30.585Z,56.10
2023-04-13T03:04:35.814Z,56.20
2023-04-13T03:09:39.836Z,56.70
2023-04-13T03:14:43.091Z,55.90
2023-04-13T03:19:49.622Z,56.00
2023-04-13T03:24:57.072Z,56.00
2023-04-13T03:30:13.737Z,55.90
2023-04-13T03:35:28.528Z,55.90
2023-04-13T03:40:34.698Z,55.90
2023-04-13T03:45:38.245Z,55.90
2023-04-13T03:50:52.690Z,55.80
2023-04-13T03:56:02.924Z,55.90
2023-04-13T04:01:13.392Z,55.90
2023-04-13T04:06:23.658Z,55.80
2023-04-13T04:11:34.980Z,55.80
2023-04-13T04:16:39.442Z,55.70
2023-04-13T04:21:53.023Z,55.70
2023-04-13T04:27:01.240Z,55.60
2023-04-13T04:32:13.128Z,55.70
2023-04-13T04:37:22.360Z,55.70
2023-04-13T04:42:41.378Z,55.60
2023-04-13T04:47:53.149Z,55.60
2023-04-13T04:53:02.882Z,55.60
2023-04-13T04:58:08.625Z,55.60
2023-04-13T05:03:15.146Z,55.60
2023-04-13T05:08:25.088Z,55.60
2023-04-13T05:13:32.317Z,55.60
2023-04-13T05:18:50.886Z,55.60
2023-04-13T05:24:34.032Z,55.80
2023-04-13T05:29:41.234Z,55.80
2023-04-13T05:34:45.560Z,55.70
2023-04-13T05:40:00.316Z,55.70
2023-04-13T05:45:11.860Z,55.70
2023-04-13T05:50:28.497Z,55.70
2023-04-13T05:55:34.558Z,55.70
2023-04-13T06:00:41.439Z,55.80
2023-04-13T06:05:49.763Z,55.70
2023-04-13T06:10:57.602Z,55.80
2023-04-13T06:16:04.209Z,56.50
2023-04-13T06:21:08.707Z,55.80
2023-04-13T06:26:13.548Z,55.80
2023-04-13T06:31:23.520Z,55.90
2023-04-13T06:36:28.456Z,55.90
2023-04-13T06:41:35.301Z,55.90
2023-04-13T06:46:57.680Z,55.90
2023-04-13T06:52:12.329Z,55.90
2023-04-13T06:57:28.255Z,55.90
2023-04-13T07:02:31.918Z,56.00
2023-04-13T07:07:40.085Z,56.00
2023-04-13T07:12:44.799Z,56.00
2023-04-13T07:17:53.253Z,56.10
2023-04-13T07:22:57.124Z,56.20
2023-04-13T07:28:02.735Z,56.20
2023-04-13T07:33:06.339Z,56.30
2023-04-13T07:38:09.869Z,56.40
2023-04-13T07:43:20.820Z,56.40
2023-04-13T07:48:27.597Z,56.50
2023-04-13T07:53:35.138Z,56.50
2023-04-13T07:58:40.562Z,56.50
2023-04-13T08:03:44.524Z,56.60
2023-04-13T08:08:55.726Z,56.60
2023-04-13T08:14:05.074Z,56.80
2023-04-13T08:19:08.873Z,57.00
2023-04-13T08:24:17.268Z,57.00
2023-04-13T08:29:22.508Z,57.00
2023-04-13T08:34:26.243Z,57.10
2023-04-13T08:39:29.608Z,57.00
2023-04-13T08:44:34.824Z,57.10
2023-04-13T08:49:39.525Z,57.20
2023-04-13T08:54:45.994Z,57.30
2023-04-13T09:00:16.472Z,57.30
2023-04-13T09:05:21.745Z,57.70
2023-04-13T09:10:30.953Z,57.60
2023-04-13T09:15:39.016Z,57.50
2023-04-13T09:20:58.176Z,57.70
2023-04-13T09:26:09.497Z,57.90
2023-04-13T09:31:17.800Z,57.90
2023-04-13T09:36:22.812Z,58.00
2023-04-13T09:41:32.009Z,58.60
2023-04-13T09:46:40.134Z,58.80
2023-04-13T09:51:43.662Z,58.90
2023-04-13T09:56:53.057Z,58.90
2023-04-13T10:01:58.050Z,58.60
2023-04-13T10:07:02.104Z,58.30
2023-04-13T10:12:12.006Z,57.90
2023-04-13T10:17:39.849Z,57.50
2023-04-13T10:22:47.956Z,57.30
2023-04-13T10:28:13.524Z,56.80
2023-04-13T10:33:18.935Z,56.80
2023-04-13T10:38:22.523Z,57.10
2023-04-13T10:43:29.756Z,57.20
2023-04-13T10:48:36.588Z,57.00
2023-04-13T10:53:40.053Z,56.70
2023-04-13T10:58:43.364Z,56.80
2023-04-13T11:04:03.588Z,56.50
2023-04-13T11:09:13.167Z,55.80
2023-04-13T11:14:22.632Z,55.40
2023-04-13T11:19:27.338Z,55.80
2023-04-13T11:24:33.991Z,55.10
2023-04-13T11:29:37.727Z,54.80
2023-04-13T11:34:47.079Z,54.40
2023-04-13T11:39:50.872Z,54.70
2023-04-13T11:44:56.758Z,54.30
2023-04-13T11:50:02.499Z,53.00
2023-04-13T11:55:21.566Z,52.80
2023-04-13T12:00:28.062Z,53.30
2023-04-13T12:05:41.574Z,54.20
2023-04-13T12:11:07.227Z,54.00
2023-04-13T12:16:17.574Z,53.80
2023-04-13T12:21:24.065Z,54.10
2023-04-13T12:27:16.353Z,53.60
2023-04-13T12:32:03.908Z,53.10
2023-04-13T12:37:11.095Z,52.80
2023-04-13T12:42:14.298Z,52.70
2023-04-13T12:47:17.739Z,52.30
2023-04-13T12:52:22.596Z,52.20
2023-04-13T12:57:28.325Z,52.30
2023-04-13T13:02:32.137Z,52.50
2023-04-13T13:07:43.806Z,52.90
2023-04-13T13:12:53.383Z,53.20
2023-04-13T13:17:56.962Z,53.70
2023-04-13T13:23:01.704Z,54.00
2023-04-13T13:28:14.258Z,54.20
2023-04-13T13:33:19.731Z,54.40
2023-04-13T13:38:27.700Z,54.60
2023-04-13T13:43:30.985Z,54.80
2023-04-13T13:48:34.197Z,55.80
2023-04-13T13:53:55.345Z,55.00
2023-04-13T13:58:59.245Z,54.70
2023-04-13T14:04:02.886Z,54.70
2023-04-13T14:09:08.094Z,54.50
2023-04-13T14:14:20.462Z,54.40
2023-04-13T14:19:24.916Z,54.50
2023-04-13T14:25:04.632Z,54.10
2023-04-13T14:30:27.425Z,53.90
2023-04-13T14:35:42.208Z,53.80
2023-04-13T14:41:09.127Z,53.60
2023-04-13T15:22:11.097Z,54.40
2023-04-13T15:28:13.997Z,53.80
2023-04-13T16:48:51.143Z,51.00
2023-04-13T18:09:20.657Z,51.30
2023-04-13T19:37:11.828Z,52.70
2023-04-13T19:54:26.128Z,52.60
2023-04-13T20:11:58.583Z,52.50
2023-04-13T20:36:03.353Z,52.40
2023-04-13T20:47:05.188Z,52.40
2023-04-13T20:52:50.188Z,52.20
2023-04-13T20:58:15.436Z,52.50
2023-04-13T21:03:41.499Z,52.70
2023-04-13T21:09:07.540Z,52.90
2023-04-13T21:14:31.204Z,52.90
2023-04-13T21:20:01.228Z,52.80
2023-04-13T21:25:28.309Z,52.90
2023-04-13T21:30:51.265Z,52.60
2023-04-13T21:41:52.275Z,52.40
2023-04-13T21:47:15.584Z,52.60
2023-04-13T21:52:38.273Z,52.60
2023-04-13T21:58:09.509Z,52.90
2023-04-13T22:03:35.514Z,52.80
2023-04-13T22:09:05.292Z,53.00
2023-04-13T22:14:37.363Z,52.90
2023-04-13T22:20:02.337Z,53.00
2023-04-13T22:25:26.288Z,52.80
2023-04-13T22:31:01.341Z,52.90
2023-04-13T22:36:26.486Z,53.00
2023-04-13T22:41:49.256Z,53.00
2023-04-13T22:47:16.435Z,52.80
2023-04-13T22:52:39.309Z,52.90
2023-04-13T22:58:08.210Z,52.60
2023-04-13T23:03:36.540Z,52.80
2023-04-13T23:09:00.474Z,52.70
2023-04-13T23:14:24.506Z,52.90
2023-04-13T23:19:49.337Z,52.70
2023-04-13T23:25:12.274Z,52.90
2023-04-13T23:30:35.315Z,53.40
2023-04-13T23:36:08.250Z,53.10
2023-04-13T23:41:31.344Z,53.10
2023-04-13T23:46:54.407Z,53.00
2023-04-13T23:52:21.489Z,53.00
2023-04-13T23:57:48.278Z,53.00
